Hardcore 5K

5K

Info

December 31, 2023 in Kewanee, IL

Results By

5K - Results

Leaderboard
Charts and Stats
Select division:

displaying: 1 - 40 of 40
number of records per page: [10] [25] [all]

    NO FN LN DIVISION OVERALL DIVPL SEXPL TIME PACE
4874 Izzy Hardin F1519 11 1/11 2/135 20:45 6:42
4880 Jay King M3034 12 4/6 10/133 21:01 6:47
4902 Jason Rusk M1519 13 3/8 11/133 21:32 6:57
4670 Bridget Brokaw F2024 14 1/7 3/135 21:45 7:01
4662 John Blaser M6569 15 1/15 12/133 21:47 7:02
4736 Patrick Koerner M6064 16 1/19 13/133 21:50 7:03
4759 West Manning M0114 17 1/11 14/133 21:59 7:06
4735 Nolan Kloepping M1519 18 4/8 15/133 22:03 7:07
4756 Cadence Manning F1519 19 2/11 4/135 22:08 7:09
4710 John Grice M6064 20 2/19 16/133 22:08 7:09
4920 Luke Raymond M4549 21 1/6 17/133 22:33 7:17
4679 Randy Carton M4549 22 2/6 18/133 22:44 7:20
4888 Jacki Mateas F3034 23 1/9 5/135 22:45 7:21
4864 Arika Dulin F2024 24 2/7 6/135 22:52 7:23
4658 Paris Barnes M4549 25 3/6 19/133 22:52 7:23
4857 Scott Colford M5054 26 1/8 20/133 22:58 7:25
4837 Drew Toohill M2024 27 2/3 21/133 23:01 7:26
4727 Aubrey Jones F0114 28 2/14 7/135 23:06 7:28
4733 Fred Kile M7074 29 1/8 22/133 23:08 7:28
4787 Jeremy Randolph M3539 30 2/5 23/133 23:17 7:31
4815 Cheyenh Smith F1519 31 3/11 8/135 23:20 7:32
4849 Michael Winter M6064 32 3/19 24/133 23:20 7:32
4763 Todd McMillion M5559 33 2/22 25/133 23:30 7:35
4867 Camryn Emmons F0114 34 3/14 9/135 23:34 7:37
4887 Alexis Martinez F1519 35 4/11 10/135 23:44 7:40
4881 Allison Kopp F4044 36 1/15 11/135 23:46 7:40
4833 Jeff Swarm M5559 37 3/22 26/133 23:46 7:40
4817 Jackson Smith M0114 38 2/11 27/133 23:47 7:41
4782 John Parker M5559 39 4/22 28/133 23:48 7:41
4654 Richard Arndt M5559 40 5/22 29/133 23:48 7:41
4697 Zach Farmer M4044 41 1/8 30/133 23:49 7:41
4755 Avery Manning F0114 42 4/14 12/135 23:49 7:41
4702 Ryan Frye M4044 43 2/8 31/133 23:53 7:43
4838 Mike Toohill M5559 44 6/22 32/133 23:58 7:44
4834 Connor Talbott M2024 45 3/3 33/133 24:03 7:46
4901 Norah Rorem F0114 46 5/14 13/135 24:04 7:46
4856 Carmen Colford F4549 47 1/10 14/135 24:06 7:47
4802 Jill Schueneman F4044 48 2/15 15/135 24:16 7:50
4806 Chase Sims M1519 49 5/8 34/133 24:27 7:54
    NO FN LN DIVISION OVERALL DIVPL SEXPL TIME PACE
4804 Tom Shipp M6064 50 4/19 35/133 24:29 7:54

  • share - click this icon in the results above to share via Facebook, Twitter, email, and more
  • print - click this icon in the results above for a printable page
  • radius - click this icon in the results above to show finishers before and after